sensor_id;sensor_type;location;lat;lon;timestamp;temperature;humidity
10249;DHT22;5169;50.560;9.714;2022-07-22T00:00:07;18.60;99.90
10249;DHT22;5169;50.560;9.714;2022-07-22T00:02:42;18.70;99.90
10249;DHT22;5169;50.560;9.714;2022-07-22T00:05:08;18.60;99.90
10249;DHT22;5169;50.560;9.714;2022-07-22T00:07:42;18.70;99.90
10249;DHT22;5169;50.560;9.714;2022-07-22T00:10:09;18.70;99.90
10249;DHT22;5169;50.560;9.714;2022-07-22T00:12:42;18.60;99.90
10249;DHT22;5169;50.560;9.714;2022-07-22T00:15:08;18.50;99.90
10249;DHT22;5169;50.560;9.714;2022-07-22T00:17:34;18.40;99.90
10249;DHT22;5169;50.560;9.714;2022-07-22T00:20:05;18.40;99.90
10249;DHT22;5169;50.560;9.714;2022-07-22T00:22:31;18.30;99.90
10249;DHT22;5169;50.560;9.714;2022-07-22T00:24:57;18.30;99.90
10249;DHT22;5169;50.560;9.714;2022-07-22T00:27:23;18.40;99.90
10249;DHT22;5169;50.560;9.714;2022-07-22T00:29:58;18.40;99.90
10249;DHT22;5169;50.560;9.714;2022-07-22T00:32:23;18.30;99.90
10249;DHT22;5169;50.560;9.714;2022-07-22T00:34:52;18.40;99.90
10249;DHT22;5169;50.560;9.714;2022-07-22T00:37:20;18.60;99.90
10249;DHT22;5169;50.560;9.714;2022-07-22T00:39:45;18.60;99.90
10249;DHT22;5169;50.560;9.714;2022-07-22T00:42:15;18.70;99.90
10249;DHT22;5169;50.560;9.714;2022-07-22T00:44:43;18.70;99.90
10249;DHT22;5169;50.560;9.714;2022-07-22T00:47:11;18.80;99.90
10249;DHT22;5169;50.560;9.714;2022-07-22T00:49:43;18.80;99.90
10249;DHT22;5169;50.560;9.714;2022-07-22T00:52:08;18.80;99.90
10249;DHT22;5169;50.560;9.714;2022-07-22T00:54:36;18.70;99.90
10249;DHT22;5169;50.560;9.714;2022-07-22T00:57:07;18.70;99.90
10249;DHT22;5169;50.560;9.714;2022-07-22T00:59:33;18.70;99.90
10249;DHT22;5169;50.560;9.714;2022-07-22T01:01:59;18.70;99.90
10249;DHT22;5169;50.560;9.714;2022-07-22T01:04:25;18.70;99.90
10249;DHT22;5169;50.560;9.714;2022-07-22T01:06:50;18.70;99.90
10249;DHT22;5169;50.560;9.714;2022-07-22T01:09:22;18.80;99.90
10249;DHT22;5169;50.560;9.714;2022-07-22T01:11:48;18.90;99.90
10249;DHT22;5169;50.560;9.714;2022-07-22T01:14:14;18.80;99.90
10249;DHT22;5169;50.560;9.714;2022-07-22T01:16:39;18.70;99.90
10249;DHT22;5169;50.560;9.714;2022-07-22T01:19:05;18.80;99.90
10249;DHT22;5169;50.560;9.714;2022-07-22T01:21:31;18.80;99.90
10249;DHT22;5169;50.560;9.714;2022-07-22T01:24:00;18.70;99.90
10249;DHT22;5169;50.560;9.714;2022-07-22T01:26:26;18.70;99.90
10249;DHT22;5169;50.560;9.714;2022-07-22T01:28:52;18.70;99.90
10249;DHT22;5169;50.560;9.714;2022-07-22T01:31:20;18.70;99.90
10249;DHT22;5169;50.560;9.714;2022-07-22T01:33:46;18.70;99.90
10249;DHT22;5169;50.560;9.714;2022-07-22T01:36:12;18.70;99.90
10249;DHT22;5169;50.560;9.714;2022-07-22T01:38:38;18.60;99.90
10249;DHT22;5169;50.560;9.714;2022-07-22T01:41:04;18.50;99.90
10249;DHT22;5169;50.560;9.714;2022-07-22T01:43:30;18.40;99.90
10249;DHT22;5169;50.560;9.714;2022-07-22T01:45:55;18.50;99.90
10249;DHT22;5169;50.560;9.714;2022-07-22T01:48:22;18.50;99.90
10249;DHT22;5169;50.560;9.714;2022-07-22T01:50:48;18.40;99.90
10249;DHT22;5169;50.560;9.714;2022-07-22T01:53:17;18.50;99.90
10249;DHT22;5169;50.560;9.714;2022-07-22T01:55:43;18.40;99.90
10249;DHT22;5169;50.560;9.714;2022-07-22T01:58:11;18.40;99.90
10249;DHT22;5169;50.560;9.714;2022-07-22T02:00:45;18.50;99.90
10249;DHT22;5169;50.560;9.714;2022-07-22T02:03:10;18.50;99.90
10249;DHT22;5169;50.560;9.714;2022-07-22T02:05:38;18.60;99.90
10249;DHT22;5169;50.560;9.714;2022-07-22T02:08:06;18.50;99.90
10249;DHT22;5169;50.560;9.714;2022-07-22T02:10:32;18.50;99.90
10249;DHT22;5169;50.560;9.714;2022-07-22T02:12:58;18.40;99.90
10249;DHT22;5169;50.560;9.714;2022-07-22T02:15:29;18.40;99.90
10249;DHT22;5169;50.560;9.714;2022-07-22T02:17:55;18.50;99.90
10249;DHT22;5169;50.560;9.714;2022-07-22T02:20:22;18.50;99.90
10249;DHT22;5169;50.560;9.714;2022-07-22T02:22:47;18.50;99.90
10249;DHT22;5169;50.560;9.714;2022-07-22T02:25:13;18.50;99.90
10249;DHT22;5169;50.560;9.714;2022-07-22T02:27:42;18.50;99.90
10249;DHT22;5169;50.560;9.714;2022-07-22T02:30:09;18.50;99.90
10249;DHT22;5169;50.560;9.714;2022-07-22T02:32:35;18.50;99.90
10249;DHT22;5169;50.560;9.714;2022-07-22T02:35:02;18.30;99.90
10249;DHT22;5169;50.560;9.714;2022-07-22T02:37:30;18.30;99.90
10249;DHT22;5169;50.560;9.714;2022-07-22T02:39:58;18.40;99.90
10249;DHT22;5169;50.560;9.714;2022-07-22T02:42:24;18.30;99.90
10249;DHT22;5169;50.560;9.714;2022-07-22T02:44:49;18.30;99.90
10249;DHT22;5169;50.560;9.714;2022-07-22T02:47:21;18.40;99.90
10249;DHT22;5169;50.560;9.714;2022-07-22T02:49:49;18.40;99.90
10249;DHT22;5169;50.560;9.714;2022-07-22T02:52:21;18.40;99.90
10249;DHT22;5169;50.560;9.714;2022-07-22T02:54:50;18.40;99.90
10249;DHT22;5169;50.560;9.714;2022-07-22T02:57:18;18.30;99.90
10249;DHT22;5169;50.560;9.714;2022-07-22T02:59:51;18.10;99.90
10249;DHT22;5169;50.560;9.714;2022-07-22T03:02:16;18.20;99.90
10249;DHT22;5169;50.560;9.714;2022-07-22T03:04:45;18.30;99.90
10249;DHT22;5169;50.560;9.714;2022-07-22T03:07:11;18.40;99.90
10249;DHT22;5169;50.560;9.714;2022-07-22T03:09:37;18.40;99.90
10249;DHT22;5169;50.560;9.714;2022-07-22T03:12:06;18.30;99.90
10249;DHT22;5169;50.560;9.714;2022-07-22T03:14:34;18.30;99.90
10249;DHT22;5169;50.560;9.714;2022-07-22T03:17:00;18.30;99.90
10249;DHT22;5169;50.560;9.714;2022-07-22T03:19:26;18.20;99.90
10249;DHT22;5169;50.560;9.714;2022-07-22T03:21:52;18.20;99.90
10249;DHT22;5169;50.560;9.714;2022-07-22T03:24:17;18.20;99.90
10249;DHT22;5169;50.560;9.714;2022-07-22T03:26:46;18.20;99.90
10249;DHT22;5169;50.560;9.714;2022-07-22T03:29:14;18.20;99.90
10249;DHT22;5169;50.560;9.714;2022-07-22T03:31:43;18.20;99.90
10249;DHT22;5169;50.560;9.714;2022-07-22T03:34:09;18.20;99.90
10249;DHT22;5169;50.560;9.714;2022-07-22T03:36:35;18.20;99.90
10249;DHT22;5169;50.560;9.714;2022-07-22T03:39:06;18.00;99.90
10249;DHT22;5169;50.560;9.714;2022-07-22T03:41:34;17.90;99.90
10249;DHT22;5169;50.560;9.714;2022-07-22T03:44:00;18.00;99.90
10249;DHT22;5169;50.560;9.714;2022-07-22T03:46:30;18.00;99.90
10249;DHT22;5169;50.560;9.714;2022-07-22T03:48:59;17.90;99.90
10249;DHT22;5169;50.560;9.714;2022-07-22T03:51:27;17.90;99.90
10249;DHT22;5169;50.560;9.714;2022-07-22T03:53:55;17.90;99.90
10249;DHT22;5169;50.560;9.714;2022-07-22T03:56:20;17.90;99.90
10249;DHT22;5169;50.560;9.714;2022-07-22T03:58:46;17.90;99.90
10249;DHT22;5169;50.560;9.714;2022-07-22T04:01:12;17.90;99.90
10249;DHT22;5169;50.560;9.714;2022-07-22T04:03:39;18.00;99.90
10249;DHT22;5169;50.560;9.714;2022-07-22T04:06:07;18.00;99.90
10249;DHT22;5169;50.560;9.714;2022-07-22T04:08:32;18.10;99.90
10249;DHT22;5169;50.560;9.714;2022-07-22T04:10:58;18.10;99.90
10249;DHT22;5169;50.560;9.714;2022-07-22T04:13:24;18.20;99.90
10249;DHT22;5169;50.560;9.714;2022-07-22T04:15:49;18.30;99.90
10249;DHT22;5169;50.560;9.714;2022-07-22T04:18:15;18.30;99.90
10249;DHT22;5169;50.560;9.714;2022-07-22T04:20:55;18.20;99.90
10249;DHT22;5169;50.560;9.714;2022-07-22T04:23:20;18.20;99.90
10249;DHT22;5169;50.560;9.714;2022-07-22T04:25:46;18.30;99.90
10249;DHT22;5169;50.560;9.714;2022-07-22T04:28:12;18.20;99.90
10249;DHT22;5169;50.560;9.714;2022-07-22T04:30:37;18.20;99.90
10249;DHT22;5169;50.560;9.714;2022-07-22T04:33:03;18.30;99.90
10249;DHT22;5169;50.560;9.714;2022-07-22T04:35:29;18.30;99.90
10249;DHT22;5169;50.560;9.714;2022-07-22T04:37:55;18.30;99.90
10249;DHT22;5169;50.560;9.714;2022-07-22T04:40:21;18.30;99.90
10249;DHT22;5169;50.560;9.714;2022-07-22T04:42:47;18.30;99.90
10249;DHT22;5169;50.560;9.714;2022-07-22T04:45:15;18.40;99.90
10249;DHT22;5169;50.560;9.714;2022-07-22T04:47:40;18.40;99.90
10249;DHT22;5169;50.560;9.714;2022-07-22T04:50:06;18.40;99.90
10249;DHT22;5169;50.560;9.714;2022-07-22T04:52:37;18.50;99.90
10249;DHT22;5169;50.560;9.714;2022-07-22T04:55:03;18.40;99.90
10249;DHT22;5169;50.560;9.714;2022-07-22T04:57:29;18.40;99.90
10249;DHT22;5169;50.560;9.714;2022-07-22T04:59:55;18.40;99.90
10249;DHT22;5169;50.560;9.714;2022-07-22T05:02:20;18.20;99.90
10249;DHT22;5169;50.560;9.714;2022-07-22T05:04:46;18.20;99.90
10249;DHT22;5169;50.560;9.714;2022-07-22T05:07:12;18.30;99.90
10249;DHT22;5169;50.560;9.714;2022-07-22T05:09:38;18.40;99.90
10249;DHT22;5169;50.560;9.714;2022-07-22T05:12:04;18.50;99.90
10249;DHT22;5169;50.560;9.714;2022-07-22T05:14:30;18.50;99.90
10249;DHT22;5169;50.560;9.714;2022-07-22T05:16:56;18.40;99.90
10249;DHT22;5169;50.560;9.714;2022-07-22T05:19:24;18.30;99.90
10249;DHT22;5169;50.560;9.714;2022-07-22T05:21:49;18.30;99.90
10249;DHT22;5169;50.560;9.714;2022-07-22T05:24:17;18.40;99.90
10249;DHT22;5169;50.560;9.714;2022-07-22T05:26:45;18.50;99.90
10249;DHT22;5169;50.560;9.714;2022-07-22T05:29:11;18.60;99.90
10249;DHT22;5169;50.560;9.714;2022-07-22T05:31:36;18.60;99.90
10249;DHT22;5169;50.560;9.714;2022-07-22T05:34:02;18.60;99.90
10249;DHT22;5169;50.560;9.714;2022-07-22T05:36:31;18.70;99.90
10249;DHT22;5169;50.560;9.714;2022-07-22T05:38:59;18.70;99.90
10249;DHT22;5169;50.560;9.714;2022-07-22T05:41:25;18.80;99.90
10249;DHT22;5169;50.560;9.714;2022-07-22T05:43:50;18.80;99.90
10249;DHT22;5169;50.560;9.714;2022-07-22T05:46:16;18.70;99.90
10249;DHT22;5169;50.560;9.714;2022-07-22T05:48:42;18.70;99.90
10249;DHT22;5169;50.560;9.714;2022-07-22T05:51:14;18.80;99.90
10249;DHT22;5169;50.560;9.714;2022-07-22T05:53:41;18.70;99.90
10249;DHT22;5169;50.560;9.714;2022-07-22T05:56:08;18.70;99.90
10249;DHT22;5169;50.560;9.714;2022-07-22T05:58:34;18.90;99.90
10249;DHT22;5169;50.560;9.714;2022-07-22T06:01:00;18.90;99.90
10249;DHT22;5169;50.560;9.714;2022-07-22T06:03:28;18.90;99.90
10249;DHT22;5169;50.560;9.714;2022-07-22T06:05:54;19.10;99.90
10249;DHT22;5169;50.560;9.714;2022-07-22T06:08:22;19.00;99.90
10249;DHT22;5169;50.560;9.714;2022-07-22T06:10:48;19.00;99.90
10249;DHT22;5169;50.560;9.714;2022-07-22T06:13:14;19.00;99.90
10249;DHT22;5169;50.560;9.714;2022-07-22T06:15:40;19.20;99.90
10249;DHT22;5169;50.560;9.714;2022-07-22T06:18:06;19.40;99.90
10249;DHT22;5169;50.560;9.714;2022-07-22T06:20:31;19.40;99.90
10249;DHT22;5169;50.560;9.714;2022-07-22T06:22:57;19.40;99.90
10249;DHT22;5169;50.560;9.714;2022-07-22T06:25:23;19.50;99.90
10249;DHT22;5169;50.560;9.714;2022-07-22T06:27:48;19.30;99.90
10249;DHT22;5169;50.560;9.714;2022-07-22T06:30:14;19.40;99.90
10249;DHT22;5169;50.560;9.714;2022-07-22T06:32:40;19.50;99.90
10249;DHT22;5169;50.560;9.714;2022-07-22T06:35:06;19.70;99.90
10249;DHT22;5169;50.560;9.714;2022-07-22T06:37:32;20.00;99.90
10249;DHT22;5169;50.560;9.714;2022-07-22T06:39:57;20.00;99.90
10249;DHT22;5169;50.560;9.714;2022-07-22T06:42:23;20.00;99.90
10249;DHT22;5169;50.560;9.714;2022-07-22T06:44:51;20.10;99.90
10249;DHT22;5169;50.560;9.714;2022-07-22T06:47:19;20.10;99.90
10249;DHT22;5169;50.560;9.714;2022-07-22T06:49:45;19.90;99.90
10249;DHT22;5169;50.560;9.714;2022-07-22T06:52:11;19.90;99.90
10249;DHT22;5169;50.560;9.714;2022-07-22T06:54:36;19.90;99.90
10249;DHT22;5169;50.560;9.714;2022-07-22T06:57:02;19.90;99.90
10249;DHT22;5169;50.560;9.714;2022-07-22T06:59:28;20.00;99.90
10249;DHT22;5169;50.560;9.714;2022-07-22T07:01:53;20.30;99.90
10249;DHT22;5169;50.560;9.714;2022-07-22T07:04:21;20.40;99.90
10249;DHT22;5169;50.560;9.714;2022-07-22T07:06:59;20.50;99.90
10249;DHT22;5169;50.560;9.714;2022-07-22T07:09:25;20.60;99.90
10249;DHT22;5169;50.560;9.714;2022-07-22T07:11:50;20.50;99.90
10249;DHT22;5169;50.560;9.714;2022-07-22T07:14:16;20.70;99.90
10249;DHT22;5169;50.560;9.714;2022-07-22T07:16:42;20.90;99.90
10249;DHT22;5169;50.560;9.714;2022-07-22T07:19:07;20.90;99.90
10249;DHT22;5169;50.560;9.714;2022-07-22T07:21:33;21.00;99.90
10249;DHT22;5169;50.560;9.714;2022-07-22T07:23:59;21.10;99.90
10249;DHT22;5169;50.560;9.714;2022-07-22T07:26:25;21.30;99.90
10249;DHT22;5169;50.560;9.714;2022-07-22T07:28:50;21.40;99.90
10249;DHT22;5169;50.560;9.714;2022-07-22T07:31:19;21.40;99.90
10249;DHT22;5169;50.560;9.714;2022-07-22T07:33:47;21.50;99.90
10249;DHT22;5169;50.560;9.714;2022-07-22T07:36:13;21.30;99.90
10249;DHT22;5169;50.560;9.714;2022-07-22T07:38:39;21.20;99.90
10249;DHT22;5169;50.560;9.714;2022-07-22T07:41:08;21.20;99.90
10249;DHT22;5169;50.560;9.714;2022-07-22T07:43:36;21.20;99.90
10249;DHT22;5169;50.560;9.714;2022-07-22T07:46:02;21.20;99.90
10249;DHT22;5169;50.560;9.714;2022-07-22T07:48:28;21.10;99.90
10249;DHT22;5169;50.560;9.714;2022-07-22T07:50:54;21.10;99.90
10249;DHT22;5169;50.560;9.714;2022-07-22T07:53:22;20.80;99.90
10249;DHT22;5169;50.560;9.714;2022-07-22T07:55:47;20.70;99.90
10249;DHT22;5169;50.560;9.714;2022-07-22T07:58:13;20.70;99.90
10249;DHT22;5169;50.560;9.714;2022-07-22T08:00:39;20.70;99.90
10249;DHT22;5169;50.560;9.714;2022-07-22T08:03:06;21.00;99.90
10249;DHT22;5169;50.560;9.714;2022-07-22T08:05:32;21.30;99.90
10249;DHT22;5169;50.560;9.714;2022-07-22T08:07:58;21.40;99.90
10249;DHT22;5169;50.560;9.714;2022-07-22T08:10:26;21.30;99.90
10249;DHT22;5169;50.560;9.714;2022-07-22T08:12:53;21.50;99.90
10249;DHT22;5169;50.560;9.714;2022-07-22T08:15:19;21.60;99.90
10249;DHT22;5169;50.560;9.714;2022-07-22T08:17:47;21.90;99.90
10249;DHT22;5169;50.560;9.714;2022-07-22T08:20:13;22.10;99.90
10249;DHT22;5169;50.560;9.714;2022-07-22T08:22:39;22.10;99.90
10249;DHT22;5169;50.560;9.714;2022-07-22T08:25:05;22.00;99.90
10249;DHT22;5169;50.560;9.714;2022-07-22T08:27:31;21.90;99.90
10249;DHT22;5169;50.560;9.714;2022-07-22T08:29:57;22.00;99.90
10249;DHT22;5169;50.560;9.714;2022-07-22T08:32:25;22.30;99.90
10249;DHT22;5169;50.560;9.714;2022-07-22T08:34:51;22.40;99.90
10249;DHT22;5169;50.560;9.714;2022-07-22T08:37:17;22.30;99.90
10249;DHT22;5169;50.560;9.714;2022-07-22T08:39:43;22.20;99.90
10249;DHT22;5169;50.560;9.714;2022-07-22T08:42:09;22.20;99.90
10249;DHT22;5169;50.560;9.714;2022-07-22T08:44:34;22.10;99.90
10249;DHT22;5169;50.560;9.714;2022-07-22T08:47:00;22.00;99.90
10249;DHT22;5169;50.560;9.714;2022-07-22T08:49:31;21.70;99.90
10249;DHT22;5169;50.560;9.714;2022-07-22T08:51:57;21.90;99.90
10249;DHT22;5169;50.560;9.714;2022-07-22T08:54:23;22.20;99.90
10249;DHT22;5169;50.560;9.714;2022-07-22T08:56:50;22.40;99.90
10249;DHT22;5169;50.560;9.714;2022-07-22T08:59:16;22.40;99.90
10249;DHT22;5169;50.560;9.714;2022-07-22T09:02:03;22.50;99.90
10249;DHT22;5169;50.560;9.714;2022-07-22T09:04:30;22.30;99.90
10249;DHT22;5169;50.560;9.714;2022-07-22T09:06:57;22.40;99.90
10249;DHT22;5169;50.560;9.714;2022-07-22T09:09:33;22.60;99.90
10249;DHT22;5169;50.560;9.714;2022-07-22T09:12:07;23.10;99.90
10249;DHT22;5169;50.560;9.714;2022-07-22T09:14:52;23.20;99.90
10249;DHT22;5169;50.560;9.714;2022-07-22T09:17:28;23.10;99.90
10249;DHT22;5169;50.560;9.714;2022-07-22T09:19:59;23.20;99.90
10249;DHT22;5169;50.560;9.714;2022-07-22T09:22:43;23.20;99.90
10249;DHT22;5169;50.560;9.714;2022-07-22T09:27:49;23.20;99.90
10249;DHT22;5169;50.560;9.714;2022-07-22T09:30:21;23.50;99.90
10249;DHT22;5169;50.560;9.714;2022-07-22T09:32:48;23.80;99.90
10249;DHT22;5169;50.560;9.714;2022-07-22T09:35:14;23.90;99.70
10249;DHT22;5169;50.560;9.714;2022-07-22T09:37:48;24.10;99.90
10249;DHT22;5169;50.560;9.714;2022-07-22T09:40:19;24.20;99.40
10249;DHT22;5169;50.560;9.714;2022-07-22T09:42:56;24.20;99.30
10249;DHT22;5169;50.560;9.714;2022-07-22T09:45:25;24.20;98.70
10249;DHT22;5169;50.560;9.714;2022-07-22T09:47:51;24.30;98.80
10249;DHT22;5169;50.560;9.714;2022-07-22T09:50:24;24.30;99.30
10249;DHT22;5169;50.560;9.714;2022-07-22T09:52:51;24.30;98.40
10249;DHT22;5169;50.560;9.714;2022-07-22T09:55:19;24.30;98.80
10249;DHT22;5169;50.560;9.714;2022-07-22T09:57:46;24.10;98.60
10249;DHT22;5169;50.560;9.714;2022-07-22T10:00:17;24.20;98.70
10249;DHT22;5169;50.560;9.714;2022-07-22T10:02:59;24.50;98.10
10249;DHT22;5169;50.560;9.714;2022-07-22T10:05:30;24.50;98.30
10249;DHT22;5169;50.560;9.714;2022-07-22T10:08:01;24.70;98.60
10249;DHT22;5169;50.560;9.714;2022-07-22T10:10:28;24.90;97.30
10249;DHT22;5169;50.560;9.714;2022-07-22T10:12:57;25.10;97.70
10249;DHT22;5169;50.560;9.714;2022-07-22T10:15:26;25.40;97.00
10249;DHT22;5169;50.560;9.714;2022-07-22T10:17:57;25.60;96.20
10249;DHT22;5169;50.560;9.714;2022-07-22T10:20:29;25.90;96.20
10249;DHT22;5169;50.560;9.714;2022-07-22T10:22:56;26.10;95.40
10249;DHT22;5169;50.560;9.714;2022-07-22T10:25:29;26.10;95.30
10249;DHT22;5169;50.560;9.714;2022-07-22T10:28:01;26.30;94.90
10249;DHT22;5169;50.560;9.714;2022-07-22T10:30:36;26.40;94.30
10249;DHT22;5169;50.560;9.714;2022-07-22T10:33:20;26.70;94.90
10249;DHT22;5169;50.560;9.714;2022-07-22T10:35:55;27.10;93.40
10249;DHT22;5169;50.560;9.714;2022-07-22T10:38:21;27.20;93.10
10249;DHT22;5169;50.560;9.714;2022-07-22T10:40:54;27.60;92.60
10249;DHT22;5169;50.560;9.714;2022-07-22T10:43:46;28.50;91.90
10249;DHT22;5169;50.560;9.714;2022-07-22T10:46:15;30.00;88.60
10249;DHT22;5169;50.560;9.714;2022-07-22T10:51:11;31.90;79.50
10249;DHT22;5169;50.560;9.714;2022-07-22T10:56:33;33.20;74.10
10249;DHT22;5169;50.560;9.714;2022-07-22T10:59:11;34.10;70.10
10249;DHT22;5169;50.560;9.714;2022-07-22T11:01:47;34.40;66.70
10249;DHT22;5169;50.560;9.714;2022-07-22T11:04:27;34.30;65.90
10249;DHT22;5169;50.560;9.714;2022-07-22T11:06:56;34.90;65.20
10249;DHT22;5169;50.560;9.714;2022-07-22T11:09:29;36.10;61.90
10249;DHT22;5169;50.560;9.714;2022-07-22T11:11:55;36.30;58.50
10249;DHT22;5169;50.560;9.714;2022-07-22T11:14:32;36.40;57.20
10249;DHT22;5169;50.560;9.714;2022-07-22T11:19:29;35.90;57.10
10249;DHT22;5169;50.560;9.714;2022-07-22T11:22:00;36.20;55.80
10249;DHT22;5169;50.560;9.714;2022-07-22T11:24:35;37.00;55.40
10249;DHT22;5169;50.560;9.714;2022-07-22T11:27:09;37.60;52.90
10249;DHT22;5169;50.560;9.714;2022-07-22T11:29:41;38.10;51.50
10249;DHT22;5169;50.560;9.714;2022-07-22T11:32:11;37.90;52.20
10249;DHT22;5169;50.560;9.714;2022-07-22T11:34:42;38.40;51.20
10249;DHT22;5169;50.560;9.714;2022-07-22T11:37:21;38.30;49.40
10249;DHT22;5169;50.560;9.714;2022-07-22T11:40:10;38.80;49.30
10249;DHT22;5169;50.560;9.714;2022-07-22T11:42:43;38.80;48.00
10249;DHT22;5169;50.560;9.714;2022-07-22T11:45:09;38.80;47.80
10249;DHT22;5169;50.560;9.714;2022-07-22T11:47:35;38.90;48.00
10249;DHT22;5169;50.560;9.714;2022-07-22T11:50:01;39.20;47.50
10249;DHT22;5169;50.560;9.714;2022-07-22T11:52:56;39.50;45.90
10249;DHT22;5169;50.560;9.714;2022-07-22T11:55:21;39.10;45.70
10249;DHT22;5169;50.560;9.714;2022-07-22T11:57:48;39.30;46.50
10249;DHT22;5169;50.560;9.714;2022-07-22T12:00:20;39.50;45.10
10249;DHT22;5169;50.560;9.714;2022-07-22T12:02:58;40.90;44.10
10249;DHT22;5169;50.560;9.714;2022-07-22T12:05:24;41.20;43.40
10249;DHT22;5169;50.560;9.714;2022-07-22T12:07:59;40.40;43.10
10249;DHT22;5169;50.560;9.714;2022-07-22T12:10:33;40.20;44.50
10249;DHT22;5169;50.560;9.714;2022-07-22T12:12:58;38.90;44.30
10249;DHT22;5169;50.560;9.714;2022-07-22T12:15:24;38.40;45.30
10249;DHT22;5169;50.560;9.714;2022-07-22T12:18:21;38.00;45.50
10249;DHT22;5169;50.560;9.714;2022-07-22T12:20:48;36.60;47.80
10249;DHT22;5169;50.560;9.714;2022-07-22T12:23:18;35.30;51.00
10249;DHT22;5169;50.560;9.714;2022-07-22T12:25:57;34.60;52.00
10249;DHT22;5169;50.560;9.714;2022-07-22T12:28:33;34.30;52.40
10249;DHT22;5169;50.560;9.714;2022-07-22T12:30:59;34.00;53.10
10249;DHT22;5169;50.560;9.714;2022-07-22T12:33:25;33.50;53.10
10249;DHT22;5169;50.560;9.714;2022-07-22T12:36:08;32.90;54.30
10249;DHT22;5169;50.560;9.714;2022-07-22T12:38:36;32.30;55.40
10249;DHT22;5169;50.560;9.714;2022-07-22T12:41:21;31.90;55.80
10249;DHT22;5169;50.560;9.714;2022-07-22T12:43:50;31.60;57.60
10249;DHT22;5169;50.560;9.714;2022-07-22T12:46:18;31.70;57.20
10249;DHT22;5169;50.560;9.714;2022-07-22T12:48:59;31.00;58.10
10249;DHT22;5169;50.560;9.714;2022-07-22T12:51:26;30.70;58.90
10249;DHT22;5169;50.560;9.714;2022-07-22T12:53:58;30.50;59.90
10249;DHT22;5169;50.560;9.714;2022-07-22T12:56:35;30.60;59.30
10249;DHT22;5169;50.560;9.714;2022-07-22T12:59:01;30.60;60.90
10249;DHT22;5169;50.560;9.714;2022-07-22T13:01:30;30.40;60.40
10249;DHT22;5169;50.560;9.714;2022-07-22T13:03:56;30.60;60.70
10249;DHT22;5169;50.560;9.714;2022-07-22T13:06:21;30.60;60.40
10249;DHT22;5169;50.560;9.714;2022-07-22T13:08:47;30.40;59.70
10249;DHT22;5169;50.560;9.714;2022-07-22T13:11:13;30.10;60.90
10249;DHT22;5169;50.560;9.714;2022-07-22T13:13:45;30.10;62.20
10249;DHT22;5169;50.560;9.714;2022-07-22T13:16:13;30.30;61.40
10249;DHT22;5169;50.560;9.714;2022-07-22T13:18:38;30.50;61.00
10249;DHT22;5169;50.560;9.714;2022-07-22T13:21:09;30.70;60.70
10249;DHT22;5169;50.560;9.714;2022-07-22T13:23:35;30.60;60.30
10249;DHT22;5169;50.560;9.714;2022-07-22T13:26:09;30.30;60.20
10249;DHT22;5169;50.560;9.714;2022-07-22T13:28:35;30.00;61.80
10249;DHT22;5169;50.560;9.714;2022-07-22T13:31:01;29.90;61.40
10249;DHT22;5169;50.560;9.714;2022-07-22T13:33:27;29.80;61.70
10249;DHT22;5169;50.560;9.714;2022-07-22T13:36:00;29.70;60.90
10249;DHT22;5169;50.560;9.714;2022-07-22T13:38:26;29.40;62.10
10249;DHT22;5169;50.560;9.714;2022-07-22T13:40:55;29.30;62.50
10249;DHT22;5169;50.560;9.714;2022-07-22T13:43:23;29.20;62.60
10249;DHT22;5169;50.560;9.714;2022-07-22T13:45:50;29.30;62.00
10249;DHT22;5169;50.560;9.714;2022-07-22T13:48:19;29.10;61.60
10249;DHT22;5169;50.560;9.714;2022-07-22T13:50:46;29.10;62.70
10249;DHT22;5169;50.560;9.714;2022-07-22T13:53:12;29.10;62.90
10249;DHT22;5169;50.560;9.714;2022-07-22T13:55:38;29.10;62.20
10249;DHT22;5169;50.560;9.714;2022-07-22T13:58:12;29.30;62.40
10249;DHT22;5169;50.560;9.714;2022-07-22T14:00:57;29.30;62.40
10249;DHT22;5169;50.560;9.714;2022-07-22T14:03:23;29.60;61.30
10249;DHT22;5169;50.560;9.714;2022-07-22T14:05:57;29.90;60.30
10249;DHT22;5169;50.560;9.714;2022-07-22T14:08:22;29.80;60.10
10249;DHT22;5169;50.560;9.714;2022-07-22T14:10:56;30.00;60.00
10249;DHT22;5169;50.560;9.714;2022-07-22T14:13:22;30.10;60.30
10249;DHT22;5169;50.560;9.714;2022-07-22T14:15:50;30.10;60.40
10249;DHT22;5169;50.560;9.714;2022-07-22T14:18:19;29.90;60.30
10249;DHT22;5169;50.560;9.714;2022-07-22T14:20:44;30.00;60.20
10249;DHT22;5169;50.560;9.714;2022-07-22T14:23:10;30.10;59.90
10249;DHT22;5169;50.560;9.714;2022-07-22T14:25:43;30.20;59.70
10249;DHT22;5169;50.560;9.714;2022-07-22T14:28:10;30.10;59.30
10249;DHT22;5169;50.560;9.714;2022-07-22T14:30:47;30.10;60.50
10249;DHT22;5169;50.560;9.714;2022-07-22T14:33:13;30.20;59.30
10249;DHT22;5169;50.560;9.714;2022-07-22T14:35:46;30.10;58.80
10249;DHT22;5169;50.560;9.714;2022-07-22T14:38:11;29.90;59.10
10249;DHT22;5169;50.560;9.714;2022-07-22T14:40:48;29.50;59.80
10249;DHT22;5169;50.560;9.714;2022-07-22T14:43:14;29.30;60.50
10249;DHT22;5169;50.560;9.714;2022-07-22T14:45:45;29.40;61.70
10249;DHT22;5169;50.560;9.714;2022-07-22T14:48:11;29.40;61.70
10249;DHT22;5169;50.560;9.714;2022-07-22T14:50:37;29.30;61.20
10249;DHT22;5169;50.560;9.714;2022-07-22T14:53:02;29.20;62.10
10249;DHT22;5169;50.560;9.714;2022-07-22T14:55:28;29.40;62.10
10249;DHT22;5169;50.560;9.714;2022-07-22T14:57:54;29.60;62.40
10249;DHT22;5169;50.560;9.714;2022-07-22T15:00:25;29.70;61.00
10249;DHT22;5169;50.560;9.714;2022-07-22T15:02:50;29.80;61.60
10249;DHT22;5169;50.560;9.714;2022-07-22T15:05:18;29.90;61.60
10249;DHT22;5169;50.560;9.714;2022-07-22T15:07:44;29.90;60.30
10249;DHT22;5169;50.560;9.714;2022-07-22T15:10:12;29.90;61.30
10249;DHT22;5169;50.560;9.714;2022-07-22T15:12:39;29.80;59.90
10249;DHT22;5169;50.560;9.714;2022-07-22T15:15:05;29.60;60.40
10249;DHT22;5169;50.560;9.714;2022-07-22T15:17:39;29.50;61.60
10249;DHT22;5169;50.560;9.714;2022-07-22T15:20:06;29.50;61.70
10249;DHT22;5169;50.560;9.714;2022-07-22T15:22:36;29.50;60.80
10249;DHT22;5169;50.560;9.714;2022-07-22T15:25:04;29.50;61.20
10249;DHT22;5169;50.560;9.714;2022-07-22T15:27:41;29.60;61.40
10249;DHT22;5169;50.560;9.714;2022-07-22T15:30:12;29.40;60.80
10249;DHT22;5169;50.560;9.714;2022-07-22T15:32:40;29.30;61.50
10249;DHT22;5169;50.560;9.714;2022-07-22T15:35:07;29.40;61.10
10249;DHT22;5169;50.560;9.714;2022-07-22T15:37:36;29.40;61.10
10249;DHT22;5169;50.560;9.714;2022-07-22T15:40:08;29.40;60.60
10249;DHT22;5169;50.560;9.714;2022-07-22T15:42:41;29.30;61.10
10249;DHT22;5169;50.560;9.714;2022-07-22T15:45:08;29.40;61.00
10249;DHT22;5169;50.560;9.714;2022-07-22T15:47:41;29.50;62.00
10249;DHT22;5169;50.560;9.714;2022-07-22T15:50:15;29.60;61.40
10249;DHT22;5169;50.560;9.714;2022-07-22T15:52:49;29.70;61.60
10249;DHT22;5169;50.560;9.714;2022-07-22T15:55:16;29.80;60.90
10249;DHT22;5169;50.560;9.714;2022-07-22T15:57:42;29.60;60.10
10249;DHT22;5169;50.560;9.714;2022-07-22T16:00:27;29.50;60.40
10249;DHT22;5169;50.560;9.714;2022-07-22T16:02:53;29.50;60.80